Time;durP1;ratioP1;P1;durP2;ratioP2;P2;SDS_P1;SDS_P2;PMS_P1;PMS_P2;Temp;Humidity;BMP_temperature;BMP_pressure;BME280_temperature;BME280_humidity;BME280_pressure;Samples;Min_cycle;Max_cycle;Signal;HPM_P1;HPM_P2
2023/08/24 00:00:41;;;;;;;2.70;2.60;;;24.60;49.80;;;;;;5008245;28;20759;-76
2023/08/24 00:03:08;;;;;;;2.90;2.70;;;24.60;49.70;;;;;;4991536;28;20988;-78
2023/08/24 00:05:36;;;;;;;2.80;2.60;;;24.60;49.80;;;;;;5007346;28;20519;-77
2023/08/24 00:08:05;;;;;;;2.40;2.30;;;24.60;49.80;;;;;;5009317;28;20985;-75
2023/08/24 00:10:30;;;;;;;2.57;2.43;;;24.60;49.80;;;;;;4990947;28;20914;-76
2023/08/24 00:12:56;;;;;;;2.73;2.53;;;24.60;49.80;;;;;;5009642;28;20468;-75
2023/08/24 00:15:22;;;;;;;2.60;2.40;;;24.60;49.80;;;;;;4990213;28;20222;-77
2023/08/24 00:17:48;;;;;;;2.20;2.10;;;24.60;49.80;;;;;;5007730;28;21330;-76
2023/08/24 00:20:13;;;;;;;2.90;2.70;;;24.60;49.70;;;;;;5008057;28;20460;-75
2023/08/24 00:22:39;;;;;;;3.17;2.97;;;24.60;49.70;;;;;;5008290;28;20262;-77
2023/08/24 00:25:07;;;;;;;2.33;2.23;;;24.60;49.80;;;;;;5009867;28;20258;-77
2023/08/24 00:27:32;;;;;;;2.23;2.13;;;24.60;49.80;;;;;;4992417;28;20233;-74
2023/08/24 00:29:58;;;;;;;2.33;2.23;;;24.60;49.80;;;;;;5007557;28;20663;-77
2023/08/24 00:32:23;;;;;;;2.60;2.50;;;24.60;49.80;;;;;;4986778;28;21751;-77
2023/08/24 00:34:49;;;;;;;2.60;2.40;;;24.60;49.70;;;;;;5007477;28;20305;-78
2023/08/24 00:37:14;;;;;;;2.40;2.30;;;24.60;49.80;;;;;;4987845;28;20290;-77
2023/08/24 00:39:41;;;;;;;2.90;2.70;;;24.60;49.80;;;;;;4986660;28;20268;-77
2023/08/24 00:42:06;;;;;;;2.60;2.40;;;24.60;49.80;;;;;;5008216;28;20214;-77
2023/08/24 00:44:32;;;;;;;2.47;2.37;;;24.60;49.80;;;;;;5005840;28;20517;-75
2023/08/24 00:46:59;;;;;;;3.13;2.93;;;24.60;49.80;;;;;;5006577;28;20207;-76
2023/08/24 00:49:26;;;;;;;2.63;2.43;;;24.60;49.80;;;;;;5005691;28;20214;-77
2023/08/24 00:51:52;;;;;;;2.63;2.47;;;24.60;49.80;;;;;;5003741;28;21033;-75
2023/08/24 00:54:17;;;;;;;2.83;2.30;;;24.60;49.80;;;;;;5004592;28;20475;-72
2023/08/24 00:56:44;;;;;;;2.80;2.67;;;24.60;49.80;;;;;;5007661;28;20241;-72
2023/08/24 00:59:09;;;;;;;2.43;2.33;;;24.60;49.70;;;;;;5005655;28;20230;-74
2023/08/24 01:01:35;;;;;;;2.30;2.20;;;24.60;49.90;;;;;;4986472;28;20563;-74
2023/08/24 01:04:02;;;;;;;2.47;2.37;;;24.60;49.80;;;;;;4994601;28;20233;-75
2023/08/24 01:06:28;;;;;;;2.57;2.37;;;24.60;49.80;;;;;;5004838;28;20685;-75
2023/08/24 01:08:54;;;;;;;2.40;2.30;;;24.60;49.80;;;;;;5006168;28;20464;-77
2023/08/24 01:11:47;;;;;;;2.30;2.20;;;24.60;49.80;;;;;;5006750;28;20229;-76
2023/08/24 01:14:21;;;;;;;2.97;2.80;;;24.60;49.80;;;;;;5004060;28;20476;-75
2023/08/24 01:16:48;;;;;;;2.53;2.33;;;24.60;49.80;;;;;;5009615;28;20465;-74
2023/08/24 01:19:43;;;;;;;2.20;2.10;;;24.60;49.80;;;;;;5011241;28;20475;-76
2023/08/24 01:22:23;;;;;;;2.80;2.60;;;24.60;49.80;;;;;;5010097;28;20459;-75
2023/08/24 01:25:14;;;;;;;2.60;2.50;;;24.60;49.90;;;;;;4995243;28;21006;-77
2023/08/24 01:27:41;;;;;;;2.40;2.30;;;24.50;49.80;;;;;;5013233;28;20467;-77
2023/08/24 01:30:08;;;;;;;2.50;2.40;;;24.50;49.80;;;;;;5008646;28;20827;-76
2023/08/24 01:32:35;;;;;;;2.80;2.70;;;24.50;49.80;;;;;;5005834;28;20527;-77
2023/08/24 01:35:05;;;;;;;2.30;2.20;;;24.50;49.80;;;;;;4996856;28;20475;-76
2023/08/24 01:37:32;;;;;;;2.30;2.20;;;24.50;50.60;;;;;;4994097;28;20459;-75
2023/08/24 01:40:09;;;;;;;2.30;2.10;;;24.50;49.80;;;;;;5011285;28;20860;-76
2023/08/24 01:42:39;;;;;;;2.10;2.00;;;24.50;49.80;;;;;;4995985;28;20459;-75
2023/08/24 01:45:08;;;;;;;2.30;2.20;;;24.60;49.90;;;;;;4992446;28;20481;-75
2023/08/24 01:47:35;;;;;;;2.70;2.50;;;24.50;49.80;;;;;;5001635;28;20484;-75
2023/08/24 01:50:02;;;;;;;2.40;2.30;;;24.50;49.80;;;;;;5013100;28;20471;-76
2023/08/24 01:52:28;;;;;;;2.80;2.60;;;24.60;49.90;;;;;;4995414;28;20458;-75
2023/08/24 01:54:53;;;;;;;2.67;2.47;;;24.50;49.80;;;;;;5013979;28;20493;-77
2023/08/24 01:57:19;;;;;;;2.47;2.37;;;24.50;49.80;;;;;;5009773;28;20681;-77
2023/08/24 01:59:44;;;;;;;2.33;2.23;;;24.50;49.80;;;;;;5014894;28;20284;-77
2023/08/24 02:02:10;;;;;;;2.57;2.47;;;24.60;49.90;;;;;;4997819;28;20230;-77
2023/08/24 02:04:36;;;;;;;2.50;2.40;;;24.50;49.80;;;;;;5018087;28;20223;-77
2023/08/24 02:07:01;;;;;;;2.53;2.43;;;24.50;49.80;;;;;;5016693;28;20929;-77
2023/08/24 02:09:27;;;;;;;2.30;2.20;;;24.50;49.70;;;;;;5013542;28;20753;-75
2023/08/24 02:11:52;;;;;;;2.47;2.27;;;24.50;49.70;;;;;;4994019;28;20804;-78
2023/08/24 02:14:18;;;;;;;3.03;2.70;;;24.50;49.80;;;;;;5010348;28;20917;-77
2023/08/24 02:16:43;;;;;;;2.80;2.60;;;24.50;49.50;;;;;;5011769;28;20234;-75
2023/08/24 02:19:09;;;;;;;2.73;2.63;;;24.50;49.50;;;;;;4995907;28;20721;-74
2023/08/24 02:21:37;;;;;;;2.63;2.53;;;24.50;49.50;;;;;;5014672;28;20222;-75
2023/08/24 02:24:04;;;;;;;2.30;2.20;;;24.50;49.40;;;;;;5012622;28;20222;-77
2023/08/24 02:26:30;;;;;;;2.37;2.27;;;24.50;49.40;;;;;;5008644;28;20463;-77
2023/08/24 02:28:57;;;;;;;2.27;2.07;;;24.50;49.50;;;;;;5009327;28;21076;-76
2023/08/24 02:31:23;;;;;;;2.87;2.67;;;24.50;49.60;;;;;;5006168;28;20229;-76
2023/08/24 02:33:48;;;;;;;2.37;2.27;;;24.50;49.50;;;;;;5010850;28;20484;-77
2023/08/24 02:36:14;;;;;;;2.70;2.50;;;24.50;49.60;;;;;;4990301;28;20230;-76
2023/08/24 02:38:40;;;;;;;2.23;2.03;;;24.50;49.50;;;;;;5008941;28;20606;-75
2023/08/24 02:41:07;;;;;;;2.47;2.37;;;24.50;49.70;;;;;;4991501;28;20233;-76
2023/08/24 02:43:34;;;;;;;2.40;2.30;;;24.50;49.60;;;;;;4989611;28;20573;-77
2023/08/24 02:46:04;;;;;;;2.47;2.37;;;24.50;49.60;;;;;;5009825;28;20464;-76
2023/08/24 02:48:33;;;;;;;2.33;2.13;;;24.50;49.70;;;;;;5011086;28;20453;-76
2023/08/24 02:51:00;;;;;;;2.63;2.53;;;24.50;49.60;;;;;;4993332;28;20479;-76
2023/08/24 02:53:26;;;;;;;2.30;2.20;;;24.60;49.70;;;;;;4990669;28;20522;-74
2023/08/24 02:55:53;;;;;;;2.80;2.60;;;24.60;49.70;;;;;;5009538;28;20470;-75
2023/08/24 02:58:19;;;;;;;2.40;2.30;;;24.50;49.60;;;;;;4989858;28;20830;-74
2023/08/24 03:00:44;;;;;;;2.83;2.70;;;24.50;49.60;;;;;;5008468;28;20463;-77
2023/08/24 03:03:10;;;;;;;2.80;2.60;;;24.50;49.70;;;;;;5007035;28;20325;-74
2023/08/24 03:05:35;;;;;;;2.40;2.30;;;24.50;49.70;;;;;;4989724;28;20230;-77
2023/08/24 03:08:04;;;;;;;2.47;2.37;;;24.50;50.50;;;;;;5009186;28;20749;-76
2023/08/24 03:10:30;;;;;;;2.23;2.13;;;24.50;49.70;;;;;;4990141;28;20230;-76
2023/08/24 03:12:55;;;;;;;2.20;2.10;;;24.50;49.80;;;;;;4988927;28;20850;-75
2023/08/24 03:15:21;;;;;;;3.80;2.50;;;24.50;49.80;;;;;;5011577;28;20280;-74
2023/08/24 03:17:47;;;;;;;2.53;2.43;;;24.50;49.80;;;;;;4990448;28;20223;-72
2023/08/24 03:20:12;;;;;;;2.60;2.30;;;24.50;49.80;;;;;;4991045;28;20761;-75
2023/08/24 03:22:40;;;;;;;2.10;2.00;;;24.50;49.80;;;;;;4991037;28;20238;-75
2023/08/24 03:25:06;;;;;;;2.90;2.70;;;24.50;49.80;;;;;;5008367;28;20601;-72
2023/08/24 03:27:32;;;;;;;2.00;1.90;;;24.50;49.80;;;;;;5008473;28;21562;-72
2023/08/24 03:29:57;;;;;;;2.67;2.57;;;24.50;49.80;;;;;;4991322;28;20218;-74
2023/08/24 03:32:24;;;;;;;2.20;2.07;;;24.50;49.90;;;;;;5006009;28;20221;-73
2023/08/24 03:34:49;;;;;;;2.20;2.10;;;24.50;49.90;;;;;;5009119;28;20460;-75
2023/08/24 03:37:15;;;;;;;2.43;2.33;;;24.50;50.00;;;;;;5008244;28;20222;-74
2023/08/24 03:39:41;;;;;;;2.73;2.53;;;24.50;50.00;;;;;;5010091;28;20245;-73
2023/08/24 03:42:07;;;;;;;2.50;2.40;;;24.50;49.90;;;;;;5011803;28;20246;-72
2023/08/24 03:44:33;;;;;;;2.20;2.10;;;24.50;50.00;;;;;;5011979;28;20226;-72
2023/08/24 03:46:58;;;;;;;2.47;2.37;;;24.50;49.90;;;;;;4990530;28;20229;-73
2023/08/24 03:49:25;;;;;;;4.30;2.27;;;24.50;49.90;;;;;;5010139;28;20226;-71
2023/08/24 03:51:51;;;;;;;2.30;2.20;;;24.50;50.00;;;;;;4988096;28;20298;-75
2023/08/24 03:54:17;;;;;;;2.70;2.60;;;24.50;49.70;;;;;;5008713;28;20478;-73
2023/08/24 03:56:42;;;;;;;2.50;2.40;;;24.50;49.70;;;;;;5008308;28;20233;-75
2023/08/24 03:59:08;;;;;;;2.90;2.70;;;24.50;49.70;;;;;;5011934;28;20284;-73
2023/08/24 04:01:34;;;;;;;2.70;2.60;;;24.50;49.60;;;;;;4994253;28;20280;-72
2023/08/24 04:03:59;;;;;;;2.90;2.70;;;24.50;49.60;;;;;;4988421;28;20230;-75
2023/08/24 04:06:25;;;;;;;2.37;2.27;;;24.50;49.50;;;;;;4992143;28;20261;-72
2023/08/24 04:08:50;;;;;;;2.53;2.40;;;24.50;49.30;;;;;;5010943;28;21146;-73
2023/08/24 04:11:16;;;;;;;2.90;2.80;;;24.50;49.30;;;;;;5012120;28;21085;-72
2023/08/24 04:13:41;;;;;;;2.73;2.50;;;24.50;49.30;;;;;;5009894;28;21977;-72
2023/08/24 04:16:07;;;;;;;3.23;2.73;;;24.50;49.20;;;;;;5013911;28;20226;-73
2023/08/24 04:18:32;;;;;;;3.00;2.80;;;24.50;48.90;;;;;;4991919;28;20230;-72
2023/08/24 04:20:58;;;;;;;3.17;2.97;;;24.50;48.60;;;;;;5010787;28;20740;-75
2023/08/24 04:23:28;;;;;;;3.00;2.80;;;24.50;48.60;;;;;;5012886;28;20233;-73
2023/08/24 04:25:54;;;;;;;2.23;2.13;;;24.50;48.60;;;;;;5009679;28;20767;-75
2023/08/24 04:28:20;;;;;;;2.57;2.37;;;24.50;48.60;;;;;;5009147;28;20468;-75
2023/08/24 04:30:53;;;;;;;2.93;2.73;;;24.50;48.60;;;;;;4988352;28;20471;-73
2023/08/24 04:33:19;;;;;;;2.43;2.33;;;24.50;49.00;;;;;;5009815;28;20563;-73
2023/08/24 04:35:49;;;;;;;2.53;2.43;;;24.50;49.20;;;;;;5005766;28;20590;-70
2023/08/24 04:38:16;;;;;;;2.27;2.17;;;24.50;49.30;;;;;;5004698;28;20236;-72
2023/08/24 04:40:59;;;;;;;4.40;2.60;;;24.50;49.50;;;;;;5003162;28;20975;-72
2023/08/24 04:43:25;;;;;;;2.40;2.30;;;24.50;49.50;;;;;;4992983;28;20997;-72
2023/08/24 04:45:53;;;;;;;2.60;2.50;;;24.50;49.60;;;;;;5007667;28;20468;-72
2023/08/24 04:48:19;;;;;;;2.53;2.43;;;24.50;49.70;;;;;;5003036;28;20226;-70
2023/08/24 04:50:46;;;;;;;3.00;2.80;;;24.50;49.70;;;;;;4988969;28;20974;-72
2023/08/24 04:53:18;;;;;;;2.67;2.50;;;24.50;49.80;;;;;;5001748;28;24351;-71
2023/08/24 04:55:44;;;;;;;2.87;2.67;;;24.50;49.80;;;;;;5009308;28;20472;-72
2023/08/24 04:58:11;;;;;;;3.00;2.80;;;24.50;49.90;;;;;;5007805;28;20476;-72
2023/08/24 05:00:37;;;;;;;2.90;2.80;;;24.50;49.80;;;;;;5010078;28;20293;-73
2023/08/24 05:03:04;;;;;;;2.60;2.40;;;24.50;49.50;;;;;;5006017;28;21229;-73
2023/08/24 05:05:31;;;;;;;2.93;2.83;;;24.50;49.40;;;;;;5009372;28;20543;-73
2023/08/24 05:07:57;;;;;;;2.50;2.40;;;24.60;49.60;;;;;;5003159;28;20463;-73
2023/08/24 05:10:23;;;;;;;3.00;2.80;;;24.50;49.60;;;;;;5004208;28;20468;-73
2023/08/24 05:12:49;;;;;;;2.60;2.50;;;24.50;49.60;;;;;;5001852;28;20541;-73
2023/08/24 05:15:14;;;;;;;2.87;2.67;;;24.60;49.80;;;;;;4983130;28;20297;-73
2023/08/24 05:17:40;;;;;;;2.40;2.30;;;24.50;49.80;;;;;;4995595;28;20615;-73
2023/08/24 05:20:10;;;;;;;2.27;2.17;;;24.50;49.70;;;;;;5005646;28;20680;-69
2023/08/24 05:22:36;;;;;;;2.47;2.37;;;24.60;49.90;;;;;;5008053;28;20574;-74
2023/08/24 05:25:02;;;;;;;2.50;2.40;;;24.50;49.90;;;;;;4974669;28;20448;-74
2023/08/24 05:27:28;;;;;;;2.67;2.57;;;24.50;49.90;;;;;;5002687;28;21174;-72
2023/08/24 05:29:53;;;;;;;2.60;2.50;;;24.60;50.00;;;;;;5001820;28;20474;-72
2023/08/24 05:32:19;;;;;;;2.37;2.27;;;24.50;49.90;;;;;;4985215;28;20222;-74
2023/08/24 05:34:46;;;;;;;2.73;2.63;;;24.50;50.70;;;;;;4997339;28;20238;-73
2023/08/24 05:37:11;;;;;;;3.07;2.87;;;24.50;50.00;;;;;;4983738;28;20326;-72
2023/08/24 05:39:38;;;;;;;3.13;2.93;;;24.50;50.00;;;;;;5005705;28;20598;-72
2023/08/24 05:42:04;;;;;;;2.77;2.57;;;24.50;50.10;;;;;;5005688;28;20240;-74
2023/08/24 05:44:29;;;;;;;3.10;2.90;;;24.50;50.10;;;;;;4986550;28;22974;-74
2023/08/24 05:46:55;;;;;;;2.90;2.80;;;24.50;50.10;;;;;;5003517;28;20585;-74
2023/08/24 05:49:20;;;;;;;3.20;3.00;;;24.50;50.10;;;;;;5003232;28;20218;-74
2023/08/24 05:51:46;;;;;;;2.83;2.70;;;24.50;50.10;;;;;;5004974;28;20242;-75
2023/08/24 05:54:13;;;;;;;3.20;3.00;;;24.50;50.20;;;;;;4989302;28;20234;-75
2023/08/24 05:56:38;;;;;;;3.50;3.20;;;24.50;50.20;;;;;;4987495;28;20309;-75
2023/08/24 05:59:04;;;;;;;3.20;2.90;;;24.60;50.20;;;;;;5006361;28;20525;-75
2023/08/24 06:01:30;;;;;;;2.87;2.73;;;24.50;50.20;;;;;;5007086;28;20237;-75
2023/08/24 06:03:55;;;;;;;3.10;2.90;;;24.50;50.20;;;;;;5009031;28;20249;-75
2023/08/24 06:06:21;;;;;;;2.63;2.53;;;24.50;50.20;;;;;;5009235;28;20218;-75
2023/08/24 06:08:46;;;;;;;3.30;3.00;;;24.50;50.20;;;;;;4990394;28;22602;-76
2023/08/24 06:11:12;;;;;;;3.40;3.20;;;24.50;50.20;;;;;;4997136;28;20769;-75
2023/08/24 06:13:37;;;;;;;3.77;3.47;;;24.50;50.20;;;;;;4990242;28;20747;-75
2023/08/24 06:16:03;;;;;;;3.10;3.00;;;24.50;50.20;;;;;;5007642;28;20227;-75
2023/08/24 06:18:29;;;;;;;2.73;2.60;;;24.50;50.20;;;;;;4991717;28;20231;-75
2023/08/24 06:20:54;;;;;;;3.20;3.00;;;24.50;50.20;;;;;;4989248;28;20268;-75
2023/08/24 06:23:21;;;;;;;3.30;3.10;;;24.50;50.20;;;;;;5010218;28;20226;-75
2023/08/24 06:25:47;;;;;;;2.90;2.80;;;24.60;50.30;;;;;;5005383;28;21065;-74
2023/08/24 06:28:13;;;;;;;3.27;3.07;;;24.50;50.20;;;;;;5008177;28;20464;-75
2023/08/24 06:30:39;;;;;;;3.30;3.10;;;24.50;50.20;;;;;;5011205;28;20253;-75
2023/08/24 06:33:05;;;;;;;2.90;2.80;;;24.50;50.20;;;;;;5007584;28;20537;-75
2023/08/24 06:35:34;;;;;;;3.17;3.03;;;24.50;50.20;;;;;;5005113;28;20471;-75
2023/08/24 06:38:01;;;;;;;3.03;2.90;;;24.50;50.20;;;;;;5004433;28;20487;-75
2023/08/24 06:40:26;;;;;;;2.73;2.63;;;24.60;50.30;;;;;;4999901;28;20562;-76
2023/08/24 06:42:52;;;;;;;3.10;2.90;;;24.50;50.20;;;;;;5002809;28;20518;-75
2023/08/24 06:45:18;;;;;;;3.27;3.00;;;24.50;50.20;;;;;;5002133;28;20341;-75
2023/08/24 06:47:44;;;;;;;2.83;2.70;;;24.50;50.30;;;;;;5000961;28;21298;-75
2023/08/24 06:50:10;;;;;;;3.03;2.93;;;24.60;50.30;;;;;;4988600;28;20223;-75
2023/08/24 06:52:35;;;;;;;2.90;2.70;;;24.50;50.20;;;;;;4983172;28;20242;-74
2023/08/24 06:55:02;;;;;;;3.03;2.87;;;24.50;50.40;;;;;;5001869;28;21755;-73
2023/08/24 06:57:27;;;;;;;3.10;3.00;;;24.50;50.30;;;;;;5008113;28;20758;-73
2023/08/24 06:59:53;;;;;;;3.10;2.90;;;24.50;50.30;;;;;;5004469;28;20464;-75
2023/08/24 07:02:18;;;;;;;3.47;3.27;;;24.50;50.30;;;;;;4998412;28;20226;-75
2023/08/24 07:04:44;;;;;;;3.07;2.93;;;24.50;50.30;;;;;;4997148;28;20218;-75
2023/08/24 07:07:10;;;;;;;3.10;3.00;;;24.50;50.40;;;;;;4994971;28;20218;-74
2023/08/24 07:09:36;;;;;;;3.07;2.90;;;24.50;50.40;;;;;;4997143;28;20670;-74
2023/08/24 07:12:03;;;;;;;3.20;3.00;;;24.60;50.40;;;;;;5004263;28;20226;-74
2023/08/24 07:14:28;;;;;;;3.00;2.90;;;24.60;50.50;;;;;;5004416;28;20313;-74
2023/08/24 07:16:54;;;;;;;2.43;2.33;;;24.60;50.50;;;;;;5003617;28;20465;-74
2023/08/24 07:19:20;;;;;;;2.80;2.60;;;24.60;50.50;;;;;;5005530;28;20223;-74
2023/08/24 07:21:46;;;;;;;2.87;2.77;;;24.60;50.50;;;;;;4985684;28;20230;-75
2023/08/24 07:24:11;;;;;;;2.60;2.50;;;24.60;50.40;;;;;;5003440;28;20527;-74
2023/08/24 07:26:37;;;;;;;3.30;3.10;;;24.60;50.50;;;;;;4988492;28;20233;-74
2023/08/24 07:29:02;;;;;;;3.37;3.17;;;24.60;50.50;;;;;;5002229;28;20326;-74
2023/08/24 07:31:28;;;;;;;2.60;2.50;;;24.60;50.40;;;;;;5002898;28;21534;-74
2023/08/24 07:33:53;;;;;;;2.83;2.67;;;24.60;50.50;;;;;;5002158;28;20670;-75
2023/08/24 07:36:19;;;;;;;2.80;2.70;;;24.60;50.40;;;;;;5004094;28;20672;-74
2023/08/24 07:38:47;;;;;;;3.07;2.97;;;24.60;50.40;;;;;;5004220;28;20242;-74
2023/08/24 07:41:12;;;;;;;3.07;2.87;;;24.60;50.50;;;;;;5002286;28;21198;-74
2023/08/24 07:43:38;;;;;;;3.00;2.80;;;24.60;50.50;;;;;;5006252;28;20503;-75
2023/08/24 07:46:04;;;;;;;2.77;2.57;;;24.60;50.50;;;;;;5003437;28;20706;-74
2023/08/24 07:48:30;;;;;;;3.10;2.90;;;24.60;50.50;;;;;;4985192;28;20234;-74
2023/08/24 07:50:56;;;;;;;3.10;2.90;;;24.60;50.50;;;;;;5002856;28;20558;-74
2023/08/24 07:53:21;;;;;;;2.90;2.70;;;24.60;50.60;;;;;;4985745;28;20230;-74
2023/08/24 07:55:47;;;;;;;2.67;2.53;;;24.60;50.50;;;;;;5002708;28;20365;-74
2023/08/24 07:58:13;;;;;;;2.67;2.57;;;24.60;50.60;;;;;;5002522;28;21032;-75
2023/08/24 08:00:39;;;;;;;2.80;2.70;;;24.60;50.50;;;;;;5003781;28;20689;-75
2023/08/24 08:03:04;;;;;;;2.70;2.60;;;24.60;50.60;;;;;;5002575;28;20709;-74
2023/08/24 08:05:30;;;;;;;2.97;2.80;;;24.60;50.60;;;;;;5003647;28;20707;-76
2023/08/24 08:07:56;;;;;;;2.90;2.80;;;24.60;50.60;;;;;;4984859;28;20773;-76
2023/08/24 08:10:21;;;;;;;3.30;3.00;;;24.60;50.60;;;;;;5005358;28;20216;-75
2023/08/24 08:12:47;;;;;;;3.00;2.90;;;24.60;50.60;;;;;;4998058;28;20663;-76
2023/08/24 08:15:12;;;;;;;2.90;2.70;;;24.60;50.60;;;;;;5000917;28;20222;-76
2023/08/24 08:17:38;;;;;;;3.37;3.17;;;24.60;50.60;;;;;;4999628;28;20226;-76
2023/08/24 08:20:04;;;;;;;2.67;2.57;;;24.60;50.60;;;;;;5005745;28;20284;-76
2023/08/24 08:22:30;;;;;;;2.70;2.50;;;24.70;50.70;;;;;;5003834;28;20738;-76
2023/08/24 08:24:58;;;;;;;2.90;2.80;;;24.60;50.60;;;;;;5004561;28;20473;-75
2023/08/24 08:27:24;;;;;;;3.27;3.17;;;24.60;50.60;;;;;;5003540;28;20311;-76
2023/08/24 08:29:50;;;;;;;2.80;2.70;;;24.60;50.60;;;;;;5001164;28;20460;-75
2023/08/24 08:32:15;;;;;;;2.90;2.80;;;24.60;50.60;;;;;;4999122;28;20261;-76
2023/08/24 08:34:41;;;;;;;2.97;2.80;;;24.70;50.80;;;;;;4980404;28;20992;-76
2023/08/24 08:37:06;;;;;;;3.07;2.87;;;24.60;50.70;;;;;;5004907;28;20488;-76
2023/08/24 08:39:32;;;;;;;3.23;3.03;;;24.70;50.80;;;;;;4989286;28;20226;-76
2023/08/24 08:41:58;;;;;;;3.03;2.90;;;24.60;50.70;;;;;;5003939;28;20257;-76
2023/08/24 08:44:29;;;;;;;2.60;2.50;;;24.60;50.70;;;;;;5002116;28;20237;-76
2023/08/24 08:46:55;;;;;;;2.97;2.87;;;24.60;50.70;;;;;;5001832;28;22406;-76
2023/08/24 08:49:21;;;;;;;3.30;3.10;;;24.70;50.80;;;;;;5005752;28;20495;-74
2023/08/24 08:51:47;;;;;;;2.67;2.57;;;24.70;50.80;;;;;;5005061;28;20467;-76
2023/08/24 08:54:12;;;;;;;2.90;2.80;;;24.70;50.80;;;;;;5004464;28;20235;-75
2023/08/24 08:56:38;;;;;;;3.37;3.17;;;24.70;50.80;;;;;;5005913;28;20229;-76
2023/08/24 08:59:08;;;;;;;3.17;2.97;;;24.70;50.80;;;;;;5004325;28;20679;-76
2023/08/24 09:01:33;;;;;;;2.73;2.63;;;24.60;50.80;;;;;;4999275;28;20254;-77
2023/08/24 09:04:00;;;;;;;3.33;3.13;;;24.70;51.60;;;;;;5005501;28;20554;-77
2023/08/24 09:06:26;;;;;;;2.63;2.53;;;24.70;50.80;;;;;;5004522;28;20218;-77
2023/08/24 09:08:53;;;;;;;3.03;2.83;;;24.70;50.80;;;;;;5004278;28;20472;-77
2023/08/24 09:11:18;;;;;;;2.57;2.47;;;24.70;50.80;;;;;;5005308;28;20229;-77
2023/08/24 09:13:45;;;;;;;3.10;2.90;;;24.70;50.80;;;;;;5006817;28;20484;-75
2023/08/24 09:16:15;;;;;;;3.00;2.90;;;24.70;50.80;;;;;;4985348;28;20273;-75
2023/08/24 09:18:44;;;;;;;2.67;2.47;;;24.70;50.80;;;;;;4983067;28;21442;-75
2023/08/24 09:21:14;;;;;;;2.73;2.53;;;24.70;50.80;;;;;;5005859;28;20549;-75
2023/08/24 09:23:54;;;;;;;3.10;2.90;;;24.70;50.90;;;;;;5006142;28;20495;-76
2023/08/24 09:26:30;;;;;;;2.57;2.47;;;24.70;50.80;;;;;;4985803;28;20563;-75
2023/08/24 09:28:56;;;;;;;3.53;3.33;;;24.70;50.80;;;;;;4988133;28;21348;-75
2023/08/24 09:31:22;;;;;;;2.90;2.50;;;24.70;50.90;;;;;;4987930;28;21170;-76
2023/08/24 09:33:48;;;;;;;3.27;3.17;;;24.70;50.90;;;;;;4984075;28;21094;-76
2023/08/24 09:36:17;;;;;;;2.70;2.60;;;24.70;50.90;;;;;;5006069;28;20472;-75
2023/08/24 09:38:49;;;;;;;2.93;2.80;;;24.70;50.80;;;;;;5006351;28;20222;-75
2023/08/24 09:41:15;;;;;;;2.73;2.63;;;24.70;50.90;;;;;;5011229;28;20471;-75
2023/08/24 09:43:40;;;;;;;2.90;2.80;;;24.70;50.90;;;;;;4992704;28;20483;-75
2023/08/24 09:46:07;;;;;;;3.63;3.43;;;24.70;50.90;;;;;;5008028;28;20266;-76
2023/08/24 09:48:33;;;;;;;2.70;2.60;;;24.70;50.90;;;;;;4984690;28;20241;-75
2023/08/24 09:51:03;;;;;;;2.77;2.67;;;24.70;50.90;;;;;;5010822;28;20480;-74
2023/08/24 09:53:32;;;;;;;2.70;2.53;;;24.70;50.90;;;;;;5009452;28;20245;-74
2023/08/24 09:56:02;;;;;;;3.20;3.10;;;24.70;50.90;;;;;;5010218;28;20484;-74
2023/08/24 09:58:29;;;;;;;2.47;2.37;;;24.70;50.90;;;;;;4987285;28;20471;-75
2023/08/24 10:00:55;;;;;;;2.90;2.70;;;24.70;50.90;;;;;;5011712;28;20474;-76
2023/08/24 10:03:24;;;;;;;2.90;2.80;;;24.70;50.90;;;;;;4990565;28;20529;-75
2023/08/24 10:05:55;;;;;;;2.50;2.40;;;24.70;50.90;;;;;;5008663;28;20460;-75
2023/08/24 10:08:26;;;;;;;2.43;2.33;;;24.70;50.80;;;;;;5007213;28;20819;-74
2023/08/24 10:10:54;;;;;;;2.90;2.80;;;24.70;50.90;;;;;;5007567;28;20474;-75
2023/08/24 10:13:37;;;;;;;3.00;2.43;;;24.70;50.90;;;;;;4991358;28;20940;-75
2023/08/24 10:16:04;;;;;;;3.00;2.90;;;24.70;50.80;;;;;;5011234;28;20954;-74
2023/08/24 10:18:30;;;;;;;3.33;3.13;;;24.70;50.80;;;;;;4989022;28;20502;-74
2023/08/24 10:20:56;;;;;;;2.90;2.80;;;24.70;50.90;;;;;;5008758;28;20595;-75
2023/08/24 10:23:22;;;;;;;2.40;2.30;;;24.70;50.90;;;;;;5010532;28;20214;-76
2023/08/24 10:25:51;;;;;;;2.60;2.50;;;24.70;50.90;;;;;;5006636;28;20482;-75
2023/08/24 10:28:19;;;;;;;2.70;2.60;;;24.70;50.90;;;;;;4992812;28;20463;-74
2023/08/24 10:30:46;;;;;;;2.60;2.50;;;24.70;50.90;;;;;;5007812;28;20589;-75
2023/08/24 10:33:14;;;;;;;2.60;2.50;;;24.70;50.90;;;;;;5008260;28;20546;-75
2023/08/24 10:35:41;;;;;;;3.07;2.97;;;24.70;50.90;;;;;;5012274;28;20598;-75
2023/08/24 10:38:06;;;;;;;3.00;2.90;;;24.70;50.90;;;;;;4990110;28;21071;-75
2023/08/24 10:40:38;;;;;;;2.53;2.33;;;24.70;50.90;;;;;;4990931;28;20468;-75
2023/08/24 10:43:07;;;;;;;2.80;2.70;;;24.70;50.90;;;;;;4993543;28;20230;-75
2023/08/24 10:45:58;;;;;;;2.53;2.43;;;24.70;50.90;;;;;;5013573;28;20468;-75
2023/08/24 10:48:29;;;;;;;2.77;2.67;;;24.70;50.90;;;;;;5010948;28;21032;-75
2023/08/24 10:51:17;;;;;;;2.67;2.57;;;24.70;50.90;;;;;;5009957;28;20510;-75
2023/08/24 10:53:48;;;;;;;2.60;2.50;;;24.70;50.90;;;;;;5007838;28;21017;-76
2023/08/24 10:56:17;;;;;;;2.80;2.70;;;24.70;50.90;;;;;;5014085;28;20467;-75
2023/08/24 10:58:44;;;;;;;2.93;2.83;;;24.70;50.90;;;;;;5013766;28;20474;-75
2023/08/24 11:01:21;;;;;;;2.70;2.60;;;24.70;51.00;;;;;;5015445;28;20468;-74
2023/08/24 11:03:56;;;;;;;2.70;2.60;;;24.70;50.90;;;;;;5015861;28;20464;-74
2023/08/24 11:06:28;;;;;;;3.10;2.90;;;24.70;50.90;;;;;;5013347;28;21015;-74
2023/08/24 11:09:13;;;;;;;2.93;2.73;;;24.70;50.90;;;;;;4999304;28;20459;-75
2023/08/24 11:11:39;;;;;;;2.83;2.73;;;24.70;50.90;;;;;;5018185;28;21088;-74
2023/08/24 11:14:19;;;;;;;2.80;2.70;;;24.70;50.90;;;;;;5011315;28;20460;-75
2023/08/24 11:16:48;;;;;;;2.80;2.70;;;24.70;51.00;;;;;;5011835;28;20503;-72
2023/08/24 11:19:15;;;;;;;2.83;2.63;;;24.70;50.90;;;;;;5014573;28;20475;-72
2023/08/24 11:21:43;;;;;;;2.77;2.60;;;24.70;50.90;;;;;;5011160;28;20571;-75
2023/08/24 11:24:15;;;;;;;2.90;2.80;;;24.70;50.90;;;;;;5013043;28;20855;-72
2023/08/24 11:26:48;;;;;;;2.67;2.47;;;24.70;50.90;;;;;;5011221;28;20502;-73
2023/08/24 11:29:15;;;;;;;2.90;2.70;;;24.70;50.90;;;;;;5013786;28;20469;-73
2023/08/24 11:31:41;;;;;;;3.00;2.90;;;24.70;51.00;;;;;;5008774;28;20480;-75
2023/08/24 11:34:07;;;;;;;2.97;2.77;;;24.70;51.00;;;;;;5013235;28;20460;-75
2023/08/24 11:36:47;;;;;;;2.73;2.63;;;24.70;51.00;;;;;;5011875;28;21072;-72
2023/08/24 11:39:19;;;;;;;2.53;2.43;;;24.70;50.90;;;;;;4987735;28;20519;-75
2023/08/24 11:41:56;;;;;;;2.83;2.63;;;24.70;51.00;;;;;;5008360;28;20506;-74
2023/08/24 11:44:21;;;;;;;2.60;2.50;;;24.70;51.00;;;;;;5010124;28;20467;-72
2023/08/24 11:46:47;;;;;;;2.93;2.73;;;24.70;51.00;;;;;;4990524;28;20475;-74
2023/08/24 11:49:12;;;;;;;2.77;2.67;;;24.70;51.00;;;;;;5005073;28;20969;-72
2023/08/24 11:51:38;;;;;;;2.70;2.60;;;24.70;51.00;;;;;;5010081;28;21201;-73
2023/08/24 11:54:04;;;;;;;2.50;2.40;;;24.70;51.10;;;;;;5005033;28;20341;-72
2023/08/24 11:56:29;;;;;;;3.03;2.93;;;24.70;51.10;;;;;;5005399;28;20622;-73
2023/08/24 11:58:55;;;;;;;2.67;2.53;;;24.70;51.10;;;;;;4991600;28;20534;-73
2023/08/24 12:01:21;;;;;;;2.60;2.50;;;24.70;51.10;;;;;;5003417;28;20999;-71
2023/08/24 12:03:46;;;;;;;2.57;2.47;;;24.70;51.00;;;;;;5008055;28;20313;-74
2023/08/24 12:06:16;;;;;;;2.87;2.77;;;24.70;51.10;;;;;;5008670;28;20583;-73
2023/08/24 12:08:45;;;;;;;2.87;2.77;;;24.70;51.10;;;;;;5011188;28;20231;-73
2023/08/24 12:11:16;;;;;;;2.67;2.57;;;24.70;51.10;;;;;;5012419;28;22303;-72
2023/08/24 12:13:55;;;;;;;2.70;2.60;;;24.70;51.10;;;;;;5009480;28;20472;-73
2023/08/24 12:16:23;;;;;;;2.80;2.70;;;24.70;51.10;;;;;;5007576;28;20476;-72
2023/08/24 12:19:00;;;;;;;2.70;2.60;;;24.70;51.10;;;;;;5008410;28;20474;-73
2023/08/24 12:21:26;;;;;;;3.10;2.90;;;24.70;51.20;;;;;;5005624;28;20498;-73
2023/08/24 12:23:58;;;;;;;2.80;2.70;;;24.70;51.20;;;;;;5010871;28;20475;-73
2023/08/24 12:26:23;;;;;;;2.60;2.40;;;24.70;51.10;;;;;;4992033;28;20489;-75
2023/08/24 12:28:53;;;;;;;2.50;2.40;;;24.70;51.20;;;;;;5004638;28;20468;-74
2023/08/24 12:31:26;;;;;;;2.70;2.60;;;24.70;51.10;;;;;;5008467;28;20321;-72
2023/08/24 12:34:06;;;;;;;2.47;2.37;;;24.70;51.10;;;;;;5007115;28;20475;-73
2023/08/24 12:36:36;;;;;;;4.63;3.87;;;24.70;51.20;;;;;;4988566;28;20467;-72
2023/08/24 12:39:05;;;;;;;2.90;2.80;;;24.70;51.20;;;;;;5010667;28;20461;-73
2023/08/24 12:41:31;;;;;;;2.60;2.50;;;24.70;51.20;;;;;;5006192;28;20503;-72
2023/08/24 12:43:57;;;;;;;3.27;3.07;;;24.70;51.20;;;;;;5006590;28;20602;-73
2023/08/24 12:46:23;;;;;;;2.70;2.60;;;24.70;51.20;;;;;;5004333;28;20218;-74
2023/08/24 12:48:50;;;;;;;2.50;2.40;;;24.70;51.30;;;;;;5005077;28;20699;-74